sensor_id;sensor_type;location;lat;lon;timestamp;pressure;altitude;pressure_sealevel;temperature;humidity
64368;BME280;50692;53.314;-6.300;2023-05-21T00:02:40;102188.22;;;15.77;81.04
64368;BME280;50692;53.314;-6.300;2023-05-21T00:05:27;102188.38;;;15.74;81.08
64368;BME280;50692;53.314;-6.300;2023-05-21T00:08:13;102186.50;;;15.76;81.28
64368;BME280;50692;53.314;-6.300;2023-05-21T00:10:58;102191.63;;;15.79;81.16
64368;BME280;50692;53.314;-6.300;2023-05-21T00:13:44;102185.53;;;15.77;81.06
64368;BME280;50692;53.314;-6.300;2023-05-21T00:16:30;102185.53;;;15.77;80.69
64368;BME280;50692;53.314;-6.300;2023-05-21T00:19:16;102180.19;;;15.60;80.80
64368;BME280;50692;53.314;-6.300;2023-05-21T00:22:02;102177.59;;;15.58;80.84
64368;BME280;50692;53.314;-6.300;2023-05-21T00:24:48;102177.44;;;15.62;80.99
64368;BME280;50692;53.314;-6.300;2023-05-21T00:27:34;102177.44;;;15.62;80.79
64368;BME280;50692;53.314;-6.300;2023-05-21T00:30:20;102172.97;;;15.62;80.93
64368;BME280;50692;53.314;-6.300;2023-05-21T00:33:06;102170.38;;;15.60;80.90
64368;BME280;50692;53.314;-6.300;2023-05-21T00:35:54;102162.31;;;15.62;80.94
64368;BME280;50692;53.314;-6.300;2023-05-21T00:38:42;102156.28;;;15.58;80.66
64368;BME280;50692;53.314;-6.300;2023-05-21T00:41:29;102164.19;;;15.60;81.04
64368;BME280;50692;53.314;-6.300;2023-05-21T00:44:15;102158.94;;;15.58;80.86
64368;BME280;50692;53.314;-6.300;2023-05-21T00:47:03;102160.56;;;15.61;80.93
64368;BME280;50692;53.314;-6.300;2023-05-21T00:49:51;102155.91;;;15.66;80.31
64368;BME280;50692;53.314;-6.300;2023-05-21T00:52:37;102154.00;;;15.68;80.16
64368;BME280;50692;53.314;-6.300;2023-05-21T00:55:26;102150.78;;;15.62;80.36
64368;BME280;50692;53.314;-6.300;2023-05-21T00:58:12;102160.75;;;15.58;80.36
64368;BME280;50692;53.314;-6.300;2023-05-21T01:00:58;102150.94;;;15.58;80.47
64368;BME280;50692;53.314;-6.300;2023-05-21T01:03:47;102142.31;;;15.53;80.40
64368;BME280;50692;53.314;-6.300;2023-05-21T01:06:33;102151.88;;;15.57;80.42
64368;BME280;50692;53.314;-6.300;2023-05-21T01:09:19;102147.63;;;15.53;80.27
64368;BME280;50692;53.314;-6.300;2023-05-21T01:12:06;102146.16;;;15.48;80.32
64368;BME280;50692;53.314;-6.300;2023-05-21T01:14:53;102146.94;;;15.50;80.42
64368;BME280;50692;53.314;-6.300;2023-05-21T01:17:39;102146.00;;;15.51;80.43
64368;BME280;50692;53.314;-6.300;2023-05-21T01:20:27;102142.47;;;15.50;80.71
64368;BME280;50692;53.314;-6.300;2023-05-21T01:23:16;102138.94;;;15.50;80.33
64368;BME280;50692;53.314;-6.300;2023-05-21T01:26:02;102138.16;;;15.48;80.16
64368;BME280;50692;53.314;-6.300;2023-05-21T01:28:48;102132.19;;;15.43;79.94
64368;BME280;50692;53.314;-6.300;2023-05-21T01:31:47;102128.06;;;15.37;80.26
64368;BME280;50692;53.314;-6.300;2023-05-21T01:34:59;102124.44;;;15.38;79.96
64368;BME280;50692;53.314;-6.300;2023-05-21T01:40:36;102122.03;;;15.33;79.37
64368;BME280;50692;53.314;-6.300;2023-05-21T01:43:26;102128.44;;;15.29;79.33
64368;BME280;50692;53.314;-6.300;2023-05-21T01:46:16;102126.78;;;15.27;79.38
64368;BME280;50692;53.314;-6.300;2023-05-21T01:49:05;102115.72;;;15.17;79.42
64368;BME280;50692;53.314;-6.300;2023-05-21T01:51:52;102125.28;;;15.21;79.47
64368;BME280;50692;53.314;-6.300;2023-05-21T01:54:38;102133.50;;;15.17;79.68
64368;BME280;50692;53.314;-6.300;2023-05-21T01:57:24;102125.63;;;15.15;79.84
64368;BME280;50692;53.314;-6.300;2023-05-21T02:00:10;102124.72;;;15.15;79.73
64368;BME280;50692;53.314;-6.300;2023-05-21T02:02:57;102129.19;;;15.14;79.64
64368;BME280;50692;53.314;-6.300;2023-05-21T02:05:45;102113.53;;;15.08;79.84
64368;BME280;50692;53.314;-6.300;2023-05-21T02:08:31;102118.06;;;15.06;79.89
64368;BME280;50692;53.314;-6.300;2023-05-21T02:11:17;102123.31;;;15.07;80.11
64368;BME280;50692;53.314;-6.300;2023-05-21T02:14:03;102116.25;;;15.06;80.08
64368;BME280;50692;53.314;-6.300;2023-05-21T02:16:49;102122.53;;;15.05;80.31
64368;BME280;50692;53.314;-6.300;2023-05-21T02:19:37;102115.63;;;15.01;80.31
64368;BME280;50692;53.314;-6.300;2023-05-21T02:22:22;102124.41;;;15.03;80.29
64368;BME280;50692;53.314;-6.300;2023-05-21T02:25:09;102121.69;;;15.05;80.27
64368;BME280;50692;53.314;-6.300;2023-05-21T02:27:55;102119.16;;;15.02;80.15
64368;BME280;50692;53.314;-6.300;2023-05-21T02:30:41;102116.66;;;14.99;80.06
64368;BME280;50692;53.314;-6.300;2023-05-21T02:33:27;102123.63;;;15.01;79.97
64368;BME280;50692;53.314;-6.300;2023-05-21T02:36:13;102129.00;;;15.00;80.15
64368;BME280;50692;53.314;-6.300;2023-05-21T02:38:59;102126.59;;;14.95;79.85
64368;BME280;50692;53.314;-6.300;2023-05-21T02:41:46;102114.59;;;14.86;79.84
64368;BME280;50692;53.314;-6.300;2023-05-21T02:44:32;102122.41;;;14.90;79.50
64368;BME280;50692;53.314;-6.300;2023-05-21T02:47:18;102121.06;;;14.81;79.44
64368;BME280;50692;53.314;-6.300;2023-05-21T02:50:06;102124.66;;;14.80;79.59
64368;BME280;50692;53.314;-6.300;2023-05-21T02:52:52;102127.53;;;14.75;79.57
64368;BME280;50692;53.314;-6.300;2023-05-21T02:55:38;102127.03;;;14.67;79.96
64368;BME280;50692;53.314;-6.300;2023-05-21T02:58:23;102128.28;;;14.60;80.07
64368;BME280;50692;53.314;-6.300;2023-05-21T03:01:09;102120.50;;;14.55;80.26
64368;BME280;50692;53.314;-6.300;2023-05-21T03:03:55;102126.97;;;14.50;80.43
64368;BME280;50692;53.314;-6.300;2023-05-21T03:06:41;102116.53;;;14.45;80.64
64368;BME280;50692;53.314;-6.300;2023-05-21T03:09:28;102118.47;;;14.42;80.60
64368;BME280;50692;53.314;-6.300;2023-05-21T03:12:14;102114.38;;;14.34;80.85
64368;BME280;50692;53.314;-6.300;2023-05-21T03:15:00;102111.97;;;14.28;80.86
64368;BME280;50692;53.314;-6.300;2023-05-21T03:17:46;102107.75;;;14.24;81.14
64368;BME280;50692;53.314;-6.300;2023-05-21T03:20:32;102113.16;;;14.23;81.10
64368;BME280;50692;53.314;-6.300;2023-05-21T03:23:18;102105.44;;;14.16;81.07
64368;BME280;50692;53.314;-6.300;2023-05-21T03:26:04;102106.66;;;14.09;81.64
64368;BME280;50692;53.314;-6.300;2023-05-21T03:28:50;102106.78;;;14.06;81.73
64368;BME280;50692;53.314;-6.300;2023-05-21T03:31:35;102105.94;;;14.06;81.70
64368;BME280;50692;53.314;-6.300;2023-05-21T03:34:21;102108.72;;;14.03;82.02
64368;BME280;50692;53.314;-6.300;2023-05-21T03:37:08;102107.94;;;14.01;82.11
64368;BME280;50692;53.314;-6.300;2023-05-21T03:39:54;102101.81;;;13.99;82.21
64368;BME280;50692;53.314;-6.300;2023-05-21T03:42:40;102106.28;;;13.98;81.94
64368;BME280;50692;53.314;-6.300;2023-05-21T03:45:25;102119.84;;;13.92;82.33
64368;BME280;50692;53.314;-6.300;2023-05-21T03:48:11;102101.19;;;13.94;82.27
64368;BME280;50692;53.314;-6.300;2023-05-21T03:50:57;102109.00;;;13.97;82.19
64368;BME280;50692;53.314;-6.300;2023-05-21T03:53:43;102112.00;;;13.89;81.99
64368;BME280;50692;53.314;-6.300;2023-05-21T03:56:29;102116.47;;;13.88;81.97
64368;BME280;50692;53.314;-6.300;2023-05-21T03:59:15;102114.78;;;13.86;82.02
64368;BME280;50692;53.314;-6.300;2023-05-21T04:02:00;102119.31;;;13.84;82.08
64368;BME280;50692;53.314;-6.300;2023-05-21T04:04:46;102115.94;;;13.80;82.18
64368;BME280;50692;53.314;-6.300;2023-05-21T04:07:32;102117.53;;;13.84;81.88
64368;BME280;50692;53.314;-6.300;2023-05-21T04:10:18;102108.63;;;13.85;81.95
64368;BME280;50692;53.314;-6.300;2023-05-21T04:13:04;102103.38;;;13.84;82.17
64368;BME280;50692;53.314;-6.300;2023-05-21T04:15:50;102105.03;;;13.86;82.36
64368;BME280;50692;53.314;-6.300;2023-05-21T04:18:35;102100.59;;;13.87;82.30
64368;BME280;50692;53.314;-6.300;2023-05-21T04:21:21;102089.75;;;13.91;82.22
64368;BME280;50692;53.314;-6.300;2023-05-21T04:24:07;102087.88;;;13.94;81.86
64368;BME280;50692;53.314;-6.300;2023-05-21T04:26:53;102073.56;;;13.77;82.36
64368;BME280;50692;53.314;-6.300;2023-05-21T04:29:40;102099.72;;;13.86;82.54
64368;BME280;50692;53.314;-6.300;2023-05-21T04:32:29;102093.34;;;13.90;82.59
64368;BME280;50692;53.314;-6.300;2023-05-21T04:35:16;102094.13;;;13.92;82.56
64368;BME280;50692;53.314;-6.300;2023-05-21T04:38:01;102104.56;;;13.97;82.21
64368;BME280;50692;53.314;-6.300;2023-05-21T04:40:50;102100.16;;;13.96;82.23
64368;BME280;50692;53.314;-6.300;2023-05-21T04:43:36;102093.00;;;13.98;82.36
64368;BME280;50692;53.314;-6.300;2023-05-21T04:46:23;102100.75;;;14.03;82.08
64368;BME280;50692;53.314;-6.300;2023-05-21T04:49:11;102097.16;;;14.04;81.74
64368;BME280;50692;53.314;-6.300;2023-05-21T04:51:57;102095.06;;;14.10;81.54
64368;BME280;50692;53.314;-6.300;2023-05-21T04:54:43;102089.63;;;14.13;81.38
64368;BME280;50692;53.314;-6.300;2023-05-21T04:57:30;102094.94;;;14.13;81.41
64368;BME280;50692;53.314;-6.300;2023-05-21T05:00:16;102088.75;;;14.13;81.45
64368;BME280;50692;53.314;-6.300;2023-05-21T05:03:02;102087.78;;;14.15;81.50
64368;BME280;50692;53.314;-6.300;2023-05-21T05:05:48;102080.66;;;14.16;81.09
64368;BME280;50692;53.314;-6.300;2023-05-21T05:08:34;102077.91;;;14.18;80.76
64368;BME280;50692;53.314;-6.300;2023-05-21T05:11:20;102084.38;;;14.12;80.75
64368;BME280;50692;53.314;-6.300;2023-05-21T05:14:06;102082.63;;;14.11;80.64
64368;BME280;50692;53.314;-6.300;2023-05-21T05:16:53;102079.13;;;14.10;80.68
64368;BME280;50692;53.314;-6.300;2023-05-21T05:19:44;102082.44;;;14.15;80.39
64368;BME280;50692;53.314;-6.300;2023-05-21T05:22:36;102076.78;;;14.23;80.23
64368;BME280;50692;53.314;-6.300;2023-05-21T05:25:21;102074.84;;;14.27;80.06
64368;BME280;50692;53.314;-6.300;2023-05-21T05:28:08;102078.06;;;14.33;79.86
64368;BME280;50692;53.314;-6.300;2023-05-21T05:30:53;102063.25;;;14.28;79.94
64368;BME280;50692;53.314;-6.300;2023-05-21T05:33:39;102078.66;;;14.40;79.63
64368;BME280;50692;53.314;-6.300;2023-05-21T05:36:25;102074.97;;;14.43;79.21
64368;BME280;50692;53.314;-6.300;2023-05-21T05:39:12;102079.81;;;14.53;79.02
64368;BME280;50692;53.314;-6.300;2023-05-21T05:41:57;102085.69;;;14.60;78.71
64368;BME280;50692;53.314;-6.300;2023-05-21T05:44:43;102085.41;;;14.66;78.50
64368;BME280;50692;53.314;-6.300;2023-05-21T05:47:29;102086.13;;;14.70;78.49
64368;BME280;50692;53.314;-6.300;2023-05-21T05:50:15;102087.69;;;14.74;78.51
64368;BME280;50692;53.314;-6.300;2023-05-21T05:53:01;102092.78;;;14.78;78.30
64368;BME280;50692;53.314;-6.300;2023-05-21T05:55:47;102086.38;;;14.82;78.10
64368;BME280;50692;53.314;-6.300;2023-05-21T05:58:33;102088.75;;;14.88;78.26
64368;BME280;50692;53.314;-6.300;2023-05-21T06:01:19;102088.59;;;14.92;78.07
64368;BME280;50692;53.314;-6.300;2023-05-21T06:04:07;102099.00;;;14.96;78.05
64368;BME280;50692;53.314;-6.300;2023-05-21T06:06:52;102100.56;;;15.00;77.79
64368;BME280;50692;53.314;-6.300;2023-05-21T06:09:38;102096.06;;;15.02;77.69
64368;BME280;50692;53.314;-6.300;2023-05-21T06:12:25;102103.94;;;15.04;77.67
64368;BME280;50692;53.314;-6.300;2023-05-21T06:15:12;102108.22;;;15.08;77.39
64368;BME280;50692;53.314;-6.300;2023-05-21T06:17:59;102101.78;;;15.12;77.30
64368;BME280;50692;53.314;-6.300;2023-05-21T06:20:45;102092.94;;;15.11;76.98
64368;BME280;50692;53.314;-6.300;2023-05-21T06:23:32;102106.25;;;15.11;76.97
64368;BME280;50692;53.314;-6.300;2023-05-21T06:26:19;102114.06;;;15.15;76.69
64368;BME280;50692;53.314;-6.300;2023-05-21T06:29:06;102109.44;;;15.18;76.63
64368;BME280;50692;53.314;-6.300;2023-05-21T06:31:53;102111.91;;;15.23;76.59
64368;BME280;50692;53.314;-6.300;2023-05-21T06:34:40;102108.19;;;15.25;76.35
64368;BME280;50692;53.314;-6.300;2023-05-21T06:37:26;102121.16;;;15.33;76.51
64368;BME280;50692;53.314;-6.300;2023-05-21T06:40:11;102112.94;;;15.38;76.29
64368;BME280;50692;53.314;-6.300;2023-05-21T06:42:57;102125.16;;;15.42;76.18
64368;BME280;50692;53.314;-6.300;2023-05-21T06:45:44;102120.63;;;15.44;75.76
64368;BME280;50692;53.314;-6.300;2023-05-21T06:48:30;102124.50;;;15.54;75.47
64368;BME280;50692;53.314;-6.300;2023-05-21T06:51:16;102126.09;;;15.58;75.49
64368;BME280;50692;53.314;-6.300;2023-05-21T06:54:02;102114.50;;;15.59;75.40
64368;BME280;50692;53.314;-6.300;2023-05-21T06:56:48;102124.53;;;15.71;75.36
64368;BME280;50692;53.314;-6.300;2023-05-21T06:59:35;102125.34;;;15.73;75.25
64368;BME280;50692;53.314;-6.300;2023-05-21T07:02:21;102124.13;;;15.79;75.30
64368;BME280;50692;53.314;-6.300;2023-05-21T07:05:07;102129.94;;;15.87;75.21
64368;BME280;50692;53.314;-6.300;2023-05-21T07:07:53;102131.41;;;15.93;75.32
64368;BME280;50692;53.314;-6.300;2023-05-21T07:10:39;102126.78;;;15.96;75.49
64368;BME280;50692;53.314;-6.300;2023-05-21T07:13:25;102132.31;;;16.09;75.14
64368;BME280;50692;53.314;-6.300;2023-05-21T07:16:11;102123.13;;;16.15;75.01
64368;BME280;50692;53.314;-6.300;2023-05-21T07:18:56;102126.31;;;16.21;75.09
64368;BME280;50692;53.314;-6.300;2023-05-21T07:21:42;102111.53;;;16.16;75.20
64368;BME280;50692;53.314;-6.300;2023-05-21T07:24:28;102134.44;;;16.36;75.26
64368;BME280;50692;53.314;-6.300;2023-05-21T07:27:14;102132.56;;;16.38;75.64
64368;BME280;50692;53.314;-6.300;2023-05-21T07:30:00;102132.19;;;16.44;75.50
64368;BME280;50692;53.314;-6.300;2023-05-21T07:32:46;102126.63;;;16.48;75.30
64368;BME280;50692;53.314;-6.300;2023-05-21T07:35:32;102128.88;;;16.56;74.98
64368;BME280;50692;53.314;-6.300;2023-05-21T07:38:18;102135.75;;;16.60;74.65
64368;BME280;50692;53.314;-6.300;2023-05-21T07:41:04;102132.75;;;16.66;74.46
64368;BME280;50692;53.314;-6.300;2023-05-21T07:43:50;102135.78;;;16.76;74.47
64368;BME280;50692;53.314;-6.300;2023-05-21T07:46:36;102134.47;;;16.83;74.00
64368;BME280;50692;53.314;-6.300;2023-05-21T07:49:22;102128.28;;;16.83;73.69
64368;BME280;50692;53.314;-6.300;2023-05-21T07:52:08;102138.03;;;16.84;73.34
64368;BME280;50692;53.314;-6.300;2023-05-21T07:54:53;102140.72;;;16.84;73.16
64368;BME280;50692;53.314;-6.300;2023-05-21T07:57:40;102135.94;;;16.89;72.95
64368;BME280;50692;53.314;-6.300;2023-05-21T08:00:26;102136.63;;;16.92;72.43
64368;BME280;50692;53.314;-6.300;2023-05-21T08:03:14;102125.50;;;17.00;72.07
64368;BME280;50692;53.314;-6.300;2023-05-21T08:06:02;102136.72;;;17.07;71.63
64368;BME280;50692;53.314;-6.300;2023-05-21T08:08:48;102138.41;;;17.23;71.47
64368;BME280;50692;53.314;-6.300;2023-05-21T08:11:34;102138.47;;;17.38;70.89
64368;BME280;50692;53.314;-6.300;2023-05-21T08:14:20;102142.03;;;17.53;70.47
64368;BME280;50692;53.314;-6.300;2023-05-21T08:17:08;102134.22;;;17.64;69.35
64368;BME280;50692;53.314;-6.300;2023-05-21T08:19:54;102110.53;;;17.58;69.19
64368;BME280;50692;53.314;-6.300;2023-05-21T08:22:40;102146.22;;;17.87;68.60
64368;BME280;50692;53.314;-6.300;2023-05-21T08:25:27;102141.34;;;17.93;67.68
64368;BME280;50692;53.314;-6.300;2023-05-21T08:28:13;102132.84;;;17.87;66.69
64368;BME280;50692;53.314;-6.300;2023-05-21T08:31:00;102100.38;;;17.79;65.88
64368;BME280;50692;53.314;-6.300;2023-05-21T08:33:52;102147.97;;;18.16;65.17
64368;BME280;50692;53.314;-6.300;2023-05-21T08:36:38;102145.69;;;18.25;64.80
64368;BME280;50692;53.314;-6.300;2023-05-21T08:39:27;102152.00;;;18.38;64.36
64368;BME280;50692;53.314;-6.300;2023-05-21T08:42:43;102153.03;;;18.50;63.04
64368;BME280;50692;53.314;-6.300;2023-05-21T08:45:33;102145.53;;;18.55;62.67
64368;BME280;50692;53.314;-6.300;2023-05-21T08:48:22;102147.94;;;18.59;62.05
64368;BME280;50692;53.314;-6.300;2023-05-21T08:51:08;102146.69;;;18.65;61.23
64368;BME280;50692;53.314;-6.300;2023-05-21T08:53:56;102143.66;;;18.71;60.75
64368;BME280;50692;53.314;-6.300;2023-05-21T08:56:42;102146.13;;;18.74;60.55
64368;BME280;50692;53.314;-6.300;2023-05-21T08:59:31;102154.91;;;18.76;60.16
64368;BME280;50692;53.314;-6.300;2023-05-21T09:02:18;102149.47;;;18.78;59.89
64368;BME280;50692;53.314;-6.300;2023-05-21T09:05:06;102144.13;;;18.78;59.63
64368;BME280;50692;53.314;-6.300;2023-05-21T09:08:12;102153.09;;;18.77;58.46
64368;BME280;50692;53.314;-6.300;2023-05-21T09:11:00;102146.78;;;18.78;58.73
64368;BME280;50692;53.314;-6.300;2023-05-21T09:13:48;102153.84;;;18.79;58.75
64368;BME280;50692;53.314;-6.300;2023-05-21T09:16:34;102149.28;;;18.81;58.67
64368;BME280;50692;53.314;-6.300;2023-05-21T09:19:20;102153.09;;;18.77;58.36
64368;BME280;50692;53.314;-6.300;2023-05-21T09:22:06;102145.63;;;18.67;58.37
64368;BME280;50692;53.314;-6.300;2023-05-21T09:24:52;102150.22;;;18.65;58.46
64368;BME280;50692;53.314;-6.300;2023-05-21T09:27:38;102153.19;;;18.61;58.94
64368;BME280;50692;53.314;-6.300;2023-05-21T09:30:25;102158.66;;;18.59;59.60
64368;BME280;50692;53.314;-6.300;2023-05-21T09:33:12;102148.13;;;18.56;59.90
64368;BME280;50692;53.314;-6.300;2023-05-21T09:36:08;102157.34;;;18.52;59.31
64368;BME280;50692;53.314;-6.300;2023-05-21T09:38:54;102152.06;;;18.51;59.18
64368;BME280;50692;53.314;-6.300;2023-05-21T09:41:42;102153.22;;;18.46;58.95
64368;BME280;50692;53.314;-6.300;2023-05-21T09:44:28;102153.31;;;18.45;58.58
64368;BME280;50692;53.314;-6.300;2023-05-21T09:47:18;102150.22;;;18.51;58.72
64368;BME280;50692;53.314;-6.300;2023-05-21T09:50:04;102152.84;;;18.53;59.09
64368;BME280;50692;53.314;-6.300;2023-05-21T09:52:51;102152.91;;;18.51;59.37
64368;BME280;50692;53.314;-6.300;2023-05-21T09:55:40;102158.00;;;18.56;59.57
64368;BME280;50692;53.314;-6.300;2023-05-21T09:58:26;102150.81;;;18.56;59.69
64368;BME280;50692;53.314;-6.300;2023-05-21T10:01:12;102157.59;;;18.62;59.53
64368;BME280;50692;53.314;-6.300;2023-05-21T10:03:59;102151.19;;;18.64;59.61
64368;BME280;50692;53.314;-6.300;2023-05-21T10:06:47;102148.31;;;18.67;59.32
64368;BME280;50692;53.314;-6.300;2023-05-21T10:09:34;102154.34;;;18.71;58.47
64368;BME280;50692;53.314;-6.300;2023-05-21T10:12:21;102153.09;;;18.77;57.97
64368;BME280;50692;53.314;-6.300;2023-05-21T10:15:13;102150.88;;;18.83;56.82
64368;BME280;50692;53.314;-6.300;2023-05-21T10:18:00;102140.72;;;18.88;57.49
64368;BME280;50692;53.314;-6.300;2023-05-21T10:20:47;102138.28;;;18.98;57.29
64368;BME280;50692;53.314;-6.300;2023-05-21T10:23:35;102141.88;;;19.11;56.89
64368;BME280;50692;53.314;-6.300;2023-05-21T10:26:23;102149.72;;;19.14;56.42
64368;BME280;50692;53.314;-6.300;2023-05-21T10:29:11;102140.19;;;19.23;56.05
64368;BME280;50692;53.314;-6.300;2023-05-21T10:32:00;102135.50;;;19.27;56.18
64368;BME280;50692;53.314;-6.300;2023-05-21T10:34:48;102143.06;;;19.47;56.38
64368;BME280;50692;53.314;-6.300;2023-05-21T10:37:35;102152.47;;;19.67;56.72
64368;BME280;50692;53.314;-6.300;2023-05-21T10:40:21;102144.84;;;19.86;56.07
64368;BME280;50692;53.314;-6.300;2023-05-21T10:50:01;102135.25;;;20.33;53.91
64368;BME280;50692;53.314;-6.300;2023-05-21T10:53:04;102133.88;;;20.53;54.07
64368;BME280;50692;53.314;-6.300;2023-05-21T10:56:19;102131.75;;;20.70;54.06
64368;BME280;50692;53.314;-6.300;2023-05-21T11:02:13;102133.91;;;20.77;53.65
64368;BME280;50692;53.314;-6.300;2023-05-21T11:05:00;102124.09;;;20.76;53.30
64368;BME280;50692;53.314;-6.300;2023-05-21T11:07:55;102124.75;;;20.80;52.88
64368;BME280;50692;53.314;-6.300;2023-05-21T11:10:41;102122.59;;;20.85;52.83
64368;BME280;50692;53.314;-6.300;2023-05-21T11:13:46;102118.34;;;20.94;52.16
64368;BME280;50692;53.314;-6.300;2023-05-21T11:16:34;102111.72;;;21.11;52.48
64368;BME280;50692;53.314;-6.300;2023-05-21T11:19:20;102125.03;;;21.36;52.13
64368;BME280;50692;53.314;-6.300;2023-05-21T11:25:04;102119.94;;;21.55;51.71
64368;BME280;50692;53.314;-6.300;2023-05-21T11:27:52;102115.91;;;21.50;50.94
64368;BME280;50692;53.314;-6.300;2023-05-21T11:30:38;102117.47;;;21.52;51.02
64368;BME280;50692;53.314;-6.300;2023-05-21T11:33:25;102112.41;;;21.61;50.91
64368;BME280;50692;53.314;-6.300;2023-05-21T11:36:12;102121.19;;;21.63;50.62
64368;BME280;50692;53.314;-6.300;2023-05-21T11:39:14;102122.03;;;21.63;50.63
64368;BME280;50692;53.314;-6.300;2023-05-21T11:42:02;102119.72;;;21.59;50.82
64368;BME280;50692;53.314;-6.300;2023-05-21T11:44:48;102114.59;;;21.67;51.09
64368;BME280;50692;53.314;-6.300;2023-05-21T11:47:34;102099.19;;;21.69;50.59
64368;BME280;50692;53.314;-6.300;2023-05-21T11:50:20;102110.81;;;21.80;50.51
64368;BME280;50692;53.314;-6.300;2023-05-21T11:53:06;102106.31;;;21.92;50.38
64368;BME280;50692;53.314;-6.300;2023-05-21T11:55:53;102105.09;;;21.96;50.12
64368;BME280;50692;53.314;-6.300;2023-05-21T11:58:41;102103.88;;;22.00;49.93
64368;BME280;50692;53.314;-6.300;2023-05-21T12:01:27;102105.47;;;22.03;50.33
64368;BME280;50692;53.314;-6.300;2023-05-21T12:04:15;102101.03;;;21.91;50.21
64368;BME280;50692;53.314;-6.300;2023-05-21T12:07:11;102114.50;;;22.02;50.39
64368;BME280;50692;53.314;-6.300;2023-05-21T12:10:00;102105.81;;;22.10;50.23
64368;BME280;50692;53.314;-6.300;2023-05-21T12:12:45;102108.25;;;22.13;50.27
64368;BME280;50692;53.314;-6.300;2023-05-21T12:15:31;102094.69;;;22.03;51.28
64368;BME280;50692;53.314;-6.300;2023-05-21T12:18:19;102099.34;;;22.01;52.39
64368;BME280;50692;53.314;-6.300;2023-05-21T12:21:07;102097.28;;;22.16;52.55
64368;BME280;50692;53.314;-6.300;2023-05-21T12:23:54;102097.50;;;22.46;51.99
64368;BME280;50692;53.314;-6.300;2023-05-21T12:26:41;102097.44;;;23.12;50.77
64368;BME280;50692;53.314;-6.300;2023-05-21T12:29:29;102103.00;;;23.53;48.57
64368;BME280;50692;53.314;-6.300;2023-05-21T12:32:16;102095.19;;;24.01;47.89
64368;BME280;50692;53.314;-6.300;2023-05-21T12:35:01;102099.47;;;24.04;46.81
64368;BME280;50692;53.314;-6.300;2023-05-21T12:37:47;102096.06;;;24.02;46.40
64368;BME280;50692;53.314;-6.300;2023-05-21T12:40:35;102099.09;;;23.87;45.73
64368;BME280;50692;53.314;-6.300;2023-05-21T12:43:22;102100.06;;;23.77;45.89
64368;BME280;50692;53.314;-6.300;2023-05-21T12:46:10;102089.75;;;23.91;45.88
64368;BME280;50692;53.314;-6.300;2023-05-21T12:48:59;102094.63;;;23.56;46.01
64368;BME280;50692;53.314;-6.300;2023-05-21T12:51:44;102089.97;;;23.58;46.72
64368;BME280;50692;53.314;-6.300;2023-05-21T12:54:32;102088.06;;;23.69;46.81
64368;BME280;50692;53.314;-6.300;2023-05-21T12:57:21;102095.56;;;23.87;46.28
64368;BME280;50692;53.314;-6.300;2023-05-21T13:00:09;102086.47;;;23.88;46.13
64368;BME280;50692;53.314;-6.300;2023-05-21T13:02:57;102096.50;;;23.76;45.98
64368;BME280;50692;53.314;-6.300;2023-05-21T13:05:45;102089.06;;;23.68;45.91
64368;BME280;50692;53.314;-6.300;2023-05-21T13:08:31;102090.91;;;23.68;46.23
64368;BME280;50692;53.314;-6.300;2023-05-21T13:11:20;102094.78;;;24.06;46.28
64368;BME280;50692;53.314;-6.300;2023-05-21T13:14:06;102082.94;;;24.37;45.44
64368;BME280;50692;53.314;-6.300;2023-05-21T13:16:51;102092.59;;;24.80;45.06
64368;BME280;50692;53.314;-6.300;2023-05-21T13:19:37;102080.50;;;24.94;44.35
64368;BME280;50692;53.314;-6.300;2023-05-21T13:22:23;102091.06;;;25.36;43.22
64368;BME280;50692;53.314;-6.300;2023-05-21T13:25:09;102089.03;;;25.48;42.14
64368;BME280;50692;53.314;-6.300;2023-05-21T13:27:56;102090.16;;;25.55;42.39
64368;BME280;50692;53.314;-6.300;2023-05-21T13:30:42;102087.59;;;25.53;42.14
64368;BME280;50692;53.314;-6.300;2023-05-21T13:33:28;102085.88;;;25.43;42.53
64368;BME280;50692;53.314;-6.300;2023-05-21T13:36:16;102091.63;;;25.40;42.46
64368;BME280;50692;53.314;-6.300;2023-05-21T13:39:02;102101.44;;;25.41;42.52
64368;BME280;50692;53.314;-6.300;2023-05-21T13:41:48;102102.28;;;25.51;42.73
64368;BME280;50692;53.314;-6.300;2023-05-21T13:44:33;102095.09;;;25.69;42.41
64368;BME280;50692;53.314;-6.300;2023-05-21T13:47:21;102086.69;;;25.72;41.69
64368;BME280;50692;53.314;-6.300;2023-05-21T13:50:07;102091.56;;;25.69;41.62
64368;BME280;50692;53.314;-6.300;2023-05-21T13:52:53;102100.81;;;25.66;41.98
64368;BME280;50692;53.314;-6.300;2023-05-21T13:55:39;102106.78;;;25.70;41.97
64368;BME280;50692;53.314;-6.300;2023-05-21T13:58:25;102096.09;;;25.88;41.41
64368;BME280;50692;53.314;-6.300;2023-05-21T14:01:12;102114.25;;;26.15;41.08
64368;BME280;50692;53.314;-6.300;2023-05-21T14:03:58;102106.47;;;26.29;40.39
64368;BME280;50692;53.314;-6.300;2023-05-21T14:06:48;102107.22;;;25.84;40.59
64368;BME280;50692;53.314;-6.300;2023-05-21T14:09:34;102114.09;;;25.59;41.43
64368;BME280;50692;53.314;-6.300;2023-05-21T14:12:20;102107.75;;;25.98;40.97
64368;BME280;50692;53.314;-6.300;2023-05-21T14:15:06;102106.88;;;25.97;41.14
64368;BME280;50692;53.314;-6.300;2023-05-21T14:17:52;102107.63;;;25.90;41.28
64368;BME280;50692;53.314;-6.300;2023-05-21T14:20:38;102107.53;;;25.43;42.17
64368;BME280;50692;53.314;-6.300;2023-05-21T14:23:24;102104.03;;;25.23;42.65
64368;BME280;50692;53.314;-6.300;2023-05-21T14:26:10;102103.13;;;24.83;43.12
64368;BME280;50692;53.314;-6.300;2023-05-21T14:28:55;102101.78;;;24.49;43.64
64368;BME280;50692;53.314;-6.300;2023-05-21T14:31:41;102106.41;;;23.97;44.80
64368;BME280;50692;53.314;-6.300;2023-05-21T14:34:27;102099.03;;;23.57;45.98
64368;BME280;50692;53.314;-6.300;2023-05-21T14:37:13;102101.28;;;23.52;46.85
64368;BME280;50692;53.314;-6.300;2023-05-21T14:39:59;102102.88;;;23.54;47.36